TimeCDT,TemperatureF,Dew PointF,Humidity,Sea Level PressureIn,VisibilityMPH,Wind Direction,Wind SpeedMPH,Gust SpeedMPH,PrecipitationIn,Events,Conditions,WindDirDegrees,DateUTC
12:53 AM,55.0,50.0,83,29.88,10.0,West,5.8,-,N/A,,Clear,280,2013-10-06 05:53:00
1:53 AM,54.0,48.9,83,29.88,10.0,West,4.6,-,N/A,,Clear,280,2013-10-06 06:53:00
2:53 AM,54.0,48.9,83,29.90,10.0,Calm,Calm,-,N/A,,Mostly Cloudy,0,2013-10-06 07:53:00
3:53 AM,54.0,48.9,83,29.88,10.0,Calm,Calm,-,N/A,,Overcast,0,2013-10-06 08:53:00
4:53 AM,52.0,48.0,86,29.87,10.0,WSW,4.6,-,N/A,,Clear,250,2013-10-06 09:53:00
5:53 AM,51.1,46.9,86,29.88,10.0,WSW,4.6,-,N/A,,Clear,240,2013-10-06 10:53:00
6:53 AM,50.0,46.0,86,29.88,10.0,SW,3.5,-,N/A,,Clear,220,2013-10-06 11:53:00
7:53 AM,50.0,46.0,86,29.87,10.0,SW,4.6,-,N/A,,Clear,230,2013-10-06 12:53:00
8:53 AM,53.1,46.0,77,29.87,10.0,Variable,4.6,-,N/A,,Clear,0,2013-10-06 13:53:00
9:53 AM,54.0,41.0,62,29.87,10.0,West,11.5,17.3,N/A,,Clear,270,2013-10-06 14:53:00
10:53 AM,55.0,41.0,59,29.87,10.0,West,13.8,-,N/A,,Scattered Clouds,270,2013-10-06 15:53:00
11:53 AM,54.0,37.9,55,29.88,10.0,West,12.7,24.2,N/A,,Overcast,270,2013-10-06 16:53:00
12:53 PM,55.0,37.9,53,29.87,10.0,West,12.7,24.2,N/A,,Scattered Clouds,270,2013-10-06 17:53:00
1:53 PM,57.9,39.0,49,29.85,10.0,WSW,9.2,18.4,N/A,,Partly Cloudy,240,2013-10-06 18:53:00
2:53 PM,55.9,39.0,53,29.87,10.0,West,11.5,20.7,N/A,,Overcast,270,2013-10-06 19:53:00
3:53 PM,55.9,37.0,49,29.86,10.0,West,12.7,19.6,N/A,,Mostly Cloudy,270,2013-10-06 20:53:00
4:53 PM,55.9,37.0,49,29.88,10.0,West,12.7,21.9,N/A,,Mostly Cloudy,270,2013-10-06 21:53:00
5:53 PM,55.0,37.9,53,29.89,10.0,WSW,12.7,19.6,N/A,,Mostly Cloudy,250,2013-10-06 22:53:00
6:53 PM,53.1,39.0,59,29.90,10.0,West,4.6,-,N/A,,Scattered Clouds,260,2013-10-06 23:53:00
7:53 PM,53.1,39.0,59,29.90,10.0,SW,3.5,-,N/A,,Overcast,230,2013-10-07 00:53:00
8:53 PM,52.0,39.9,63,29.90,10.0,SW,4.6,-,N/A,,Overcast,230,2013-10-07 01:53:00
9:53 PM,52.0,39.9,63,29.91,10.0,WSW,5.8,-,N/A,,Overcast,240,2013-10-07 02:53:00
10:53 PM,52.0,41.0,66,29.91,10.0,WSW,4.6,-,N/A,,Overcast,250,2013-10-07 03:53:00
11:53 PM,52.0,44.1,74,29.92,10.0,West,6.9,-,N/A,,Overcast,270,2013-10-07 04:53:00